Nearby METAR Reports

 

KSJC - San Jose, California, USA
Distance from station: NØ 14km
Oppdatert: 18/06/2019 08:53
Klart
Klart
 Vind fra NNV
Vind: NNV 9 km/h
Temperatur: 17°C
Duggpunkt: 16°C
Fuktighet: 94%
Barometer: 1011.5 hPa
Clouds: Klart
Visibility: 16 km
2019/06/18 06:53 KSJC 180653Z 33005KT 10SM CLR 17/16 A2987 RMK AO2 SLP116 LAST T01720156
KNUQ - Moffett Nas/Mtn, California, USA
Distance from station: N 14km
Oppdatert: 18/06/2019 08:56
Klart
Klart
 Vind fra NV
Vind: NV 9 km/h
Temperatur: 18°C
Duggpunkt: 14°C
Fuktighet: 78%
Barometer: 1011.9 hPa
Clouds: Klart
Visibility: 16 km
2019/06/18 06:56 KNUQ 180656Z 32005KT 10SM CLR 18/14 A2988 RMK AO2 SLP121 T01780144
 
KPAO - Palo Alto, California, USA
Distance from station: NNV 23km
Oppdatert: 18/06/2019 05:47
NOT Current
Few Clouds
Few Clouds
 Vind fra NNV
Vind: NNV 17 km/h
Temperatur: 18°C
Duggpunkt: 14°C
Fuktighet: 78%
Barometer: 1011.2 hPa
Clouds: Few Clouds
Visibility: 16 km
Cloud details: Few Clouds 3658 m
2019/06/18 03:47 KPAO 180347Z 33009KT 10SM FEW120 18/14 A2986 RMK LAST NOTAM GPS/VOR N/A AT NIGHT
KRHV - San Jose/Reid, California, USA
Distance from station: ØNØ 19km
Oppdatert: 18/06/2019 04:50
NOT Current
Klart
Klart
 Vind fra VNV
Vind: VNV 11 km/h
Temperatur: 24°C
Duggpunkt: 14°C
Fuktighet: 54%
Barometer: 1010.5 hPa
Clouds: Klart
Visibility: 16 km
2019/06/18 02:50 KRHV 180250Z 30006KT 10SM SKC 24/14 A2984
 
KOAK - Oakland, California, USA
Distance from station: NNV 50km
Oppdatert: 18/06/2019 08:53
Few Clouds
Few Clouds
 Vind fra NNV
Vind: NNV 11 km/h
Temperatur: 15°C
Duggpunkt: 12°C
Fuktighet: 82%
Barometer: 1012.2 hPa
Clouds: Few Clouds
Visibility: 16 km
Cloud details: Few Clouds 305 m
2019/06/18 06:53 KOAK 180653Z 33006KT 10SM FEW010 15/12 A2989 RMK AO2 SLP120 T01500117
KSQL - San Carlos Airpo, California, USA
Distance from station: NV 34km
Oppdatert: 18/06/2019 05:55
NOT Current
Few Clouds
Few Clouds
 Vind fra NV
Vind: NV 11 km/h
Temperatur: 17°C
Duggpunkt: 13°C
Fuktighet: 77%
Barometer: 1011.2 hPa
Clouds: Few Clouds
Visibility: 16 km
Cloud details: Few Clouds 6096 m
2019/06/18 03:55 KSQL 180355Z 31006KT 10SM FEW200 17/13 A2986 RMK LAST
 
KSFO - San Francisco, California, USA
Distance from station: NV 49km
Oppdatert: 18/06/2019 08:56
Few Clouds
Few Clouds
 Vind fra varies
Vind: varies 6 km/h
Temperatur: 16°C
Duggpunkt: 12°C
Fuktighet: 77%
Barometer: 1011.9 hPa
Clouds: Few Clouds
Visibility: 16 km
Cloud details: Few Clouds 6096 m
2019/06/18 06:56 KSFO 180656Z VRB03KT 10SM FEW200 16/12 A2988 RMK AO2 SLP117 T01610117
KE16 - San Martin, California, USA
Distance from station: ØSØ 43km
Oppdatert: 30/05/2019 21:30
NOT Current

 Vind fra SØ
Vind: SØ 9 km/h
Temperatur: 18°C
Duggpunkt: 11°C
Fuktighet: 64%
Barometer: 1014.6 hPa
2019/05/30 19:30 KE16 301930Z AUTO 13005KT 18/11 A2996 RMK AO2 PWINO PNO
 
KWVI - Watsonville, California, USA
Distance from station: SSØ 44km
Oppdatert: 18/06/2019 08:53
Overskyet
Overskyet
 Vind fra V
Vind: V 9 km/h
Temperatur: 13°C
Duggpunkt: 12°C
Fuktighet: 94%
Barometer: 1013.5 hPa
Clouds: Overskyet
Visibility: 16 km
Cloud details: Overskyet 183 m
2019/06/18 06:53 KWVI 180653Z AUTO 27005KT 10SM OVC006 13/12 A2993 RMK AO2 SLP134 T01330117 $
KHAF - Half Moon Bay, California, USA
Distance from station: VNV 50km
Oppdatert: 18/06/2019 09:00
Overskyet
Overskyet
 Vind fra SSØ
Vind: SSØ 19 km/h
Temperatur: 13°C
Duggpunkt: 12°C
Fuktighet: 94%
Barometer: 1013.2 hPa
Clouds: Overskyet
Visibility: 11 km
Cloud details: Overskyet 122 m
2019/06/18 07:00 KHAF 180700Z AUTO 15010KT 7SM OVC004 13/12 A2992 RMK AO2
 
KHWD - Hayward, California, USA
Distance from station: N 44km
Oppdatert: 18/06/2019 08:54
Klart
Klart
 Vind fra NNV
Vind: NNV 13 km/h
Temperatur: 14°C
Duggpunkt: 12°C
Fuktighet: 88%
Barometer: 1011.9 hPa
Clouds: Klart
Visibility: 14 km
2019/06/18 06:54 KHWD 180654Z AUTO 33007KT 9SM CLR 14/12 A2988 RMK AO2 SLP126 T01440117
KLVK - Livermore, California, USA
Distance from station: NNØ 51km
Oppdatert: 18/06/2019 08:53
Klart
Klart
 Vind fra V
Vind: V 11 km/h
Temperatur: 19°C
Duggpunkt: 13°C
Fuktighet: 68%
Barometer: 1010.8 hPa
Clouds: Klart
Visibility: 16 km
2019/06/18 06:53 KLVK 180653Z AUTO 28006KT 10SM CLR 19/13 A2985 RMK AO2 SLP104 T01940133